OIHH  Hamadan  Airport

Hamadan, Iran

Add Bookmark
ICAO OIHH
IATA HDM
Type Airport
Status Operational
Latitude
34° 52' 9" N
34.869202
Longitude
48° 33' 9" E
48.552502
Local (GMT +4.5 ) UTC
Jul 31, 2016 01:07 am Jul 30, 2016 20:37
Sunrise-Sunset Local UTC
Begin Civil Twilight 05:56 am 01:26
Sunrise 06:23 am 01:53
Sunset 08:20 pm 15:50
End Civil Twilight 08:48 pm 16:18
VFR
VFR
MVFR
MVFR
IFR
IFR
LIFR
LIFR
Unknown
Unavailable

Current Weather

METAR Observed VFR
OIHH 301951Z 17006KT CAVOK 24/07 Q1015 Sat, Jul 30, 2016 @ 19:51 UTC
(46 Minutes ago)
Visual Flight Rules
Wind Visibility Conditions
170° at 6 knots (11 kph) 10 km or more
  • No significant weather
Temperatures Readings Precipitation
Current Temp
24°C
75°F
Dewpoint
7°C
45°F
Humidity 34%
Altimeter 29.97" Hg
Sea Level Pressure 1,015 mb
Field Elevation
1,757 m
5,764 ft
None Recorded

Additional weather within a 92.6km radius of OIHH

Map ICAO Location
OIHM 69.5km S/SE (160°)
VFR
VFR
MVFR
MVFR
IFR
IFR
LIFR
LIFR
Unknown
Unavailable
-
-

CheckWX.com is intended as a tool to help pilots better visualize weather data. It is not intended as a substitute for an official weather briefing obtained from a Flight Service Station. CheckWX.com does not meet the FAA requirements for an official pre-flight weather briefing. Therefore, it's important that pilots still call and obtain an official FSS pre-flight weather briefing.

© 2007-2016 CheckWX.com
20:37:43 UTC